sensor_id;sensor_type;location;lat;lon;timestamp;P1;durP1;ratioP1;P2;durP2;ratioP2
21046;SDS011;10682;50.874;3.656;2022-11-14T00:01:07;30.27;;;17.07;;
21046;SDS011;10682;50.874;3.656;2022-11-14T00:03:36;33.10;;;18.77;;
21046;SDS011;10682;50.874;3.656;2022-11-14T00:06:04;35.47;;;19.83;;
21046;SDS011;10682;50.874;3.656;2022-11-14T00:08:32;33.23;;;18.70;;
21046;SDS011;10682;50.874;3.656;2022-11-14T00:11:00;32.33;;;17.80;;
21046;SDS011;10682;50.874;3.656;2022-11-14T00:13:27;27.50;;;15.30;;
21046;SDS011;10682;50.874;3.656;2022-11-14T00:15:54;22.33;;;13.97;;
21046;SDS011;10682;50.874;3.656;2022-11-14T00:18:21;22.17;;;14.23;;
21046;SDS011;10682;50.874;3.656;2022-11-14T00:20:49;23.53;;;13.00;;
21046;SDS011;10682;50.874;3.656;2022-11-14T00:23:18;22.83;;;14.47;;
21046;SDS011;10682;50.874;3.656;2022-11-14T00:25:46;29.20;;;17.37;;
21046;SDS011;10682;50.874;3.656;2022-11-14T00:28:13;28.47;;;15.93;;
21046;SDS011;10682;50.874;3.656;2022-11-14T00:30:40;24.53;;;15.10;;
21046;SDS011;10682;50.874;3.656;2022-11-14T00:33:07;29.67;;;17.00;;
21046;SDS011;10682;50.874;3.656;2022-11-14T00:35:34;29.03;;;16.47;;
21046;SDS011;10682;50.874;3.656;2022-11-14T00:38:01;26.37;;;15.93;;
21046;SDS011;10682;50.874;3.656;2022-11-14T00:40:28;30.87;;;17.70;;
21046;SDS011;10682;50.874;3.656;2022-11-14T00:42:55;27.87;;;17.40;;
21046;SDS011;10682;50.874;3.656;2022-11-14T00:45:22;31.10;;;17.37;;
21046;SDS011;10682;50.874;3.656;2022-11-14T00:47:49;27.40;;;16.23;;
21046;SDS011;10682;50.874;3.656;2022-11-14T00:50:16;29.77;;;16.53;;
21046;SDS011;10682;50.874;3.656;2022-11-14T00:52:43;32.17;;;16.77;;
21046;SDS011;10682;50.874;3.656;2022-11-14T00:55:10;38.27;;;19.70;;
21046;SDS011;10682;50.874;3.656;2022-11-14T00:57:37;50.40;;;21.63;;
21046;SDS011;10682;50.874;3.656;2022-11-14T01:00:05;49.83;;;21.67;;
21046;SDS011;10682;50.874;3.656;2022-11-14T01:02:34;63.10;;;24.10;;
21046;SDS011;10682;50.874;3.656;2022-11-14T01:05:01;52.00;;;23.37;;
21046;SDS011;10682;50.874;3.656;2022-11-14T01:07:28;271.13;;;37.10;;
21046;SDS011;10682;50.874;3.656;2022-11-14T01:09:55;107.17;;;28.67;;
21046;SDS011;10682;50.874;3.656;2022-11-14T01:12:22;55.00;;;25.57;;
21046;SDS011;10682;50.874;3.656;2022-11-14T01:14:49;50.00;;;24.13;;
21046;SDS011;10682;50.874;3.656;2022-11-14T01:17:16;62.63;;;25.73;;
21046;SDS011;10682;50.874;3.656;2022-11-14T01:19:43;62.97;;;25.80;;
21046;SDS011;10682;50.874;3.656;2022-11-14T01:22:09;65.87;;;25.57;;
21046;SDS011;10682;50.874;3.656;2022-11-14T01:24:36;41.70;;;22.83;;
21046;SDS011;10682;50.874;3.656;2022-11-14T01:27:03;55.50;;;24.97;;
21046;SDS011;10682;50.874;3.656;2022-11-14T01:29:30;45.97;;;23.73;;
21046;SDS011;10682;50.874;3.656;2022-11-14T01:31:57;43.67;;;24.03;;
21046;SDS011;10682;50.874;3.656;2022-11-14T01:34:24;40.17;;;22.67;;
21046;SDS011;10682;50.874;3.656;2022-11-14T01:36:51;51.87;;;23.13;;
21046;SDS011;10682;50.874;3.656;2022-11-14T01:39:18;57.17;;;23.97;;
21046;SDS011;10682;50.874;3.656;2022-11-14T01:41:45;44.97;;;23.13;;
21046;SDS011;10682;50.874;3.656;2022-11-14T01:44:16;56.70;;;24.83;;
21046;SDS011;10682;50.874;3.656;2022-11-14T01:47:05;84.83;;;25.60;;
21046;SDS011;10682;50.874;3.656;2022-11-14T01:49:34;48.47;;;22.67;;
21046;SDS011;10682;50.874;3.656;2022-11-14T01:52:15;84.30;;;23.77;;
21046;SDS011;10682;50.874;3.656;2022-11-14T01:54:49;45.40;;;21.60;;
21046;SDS011;10682;50.874;3.656;2022-11-14T01:57:24;42.47;;;19.97;;
21046;SDS011;10682;50.874;3.656;2022-11-14T02:00:00;36.63;;;18.53;;
21046;SDS011;10682;50.874;3.656;2022-11-14T02:02:33;40.80;;;20.37;;
21046;SDS011;10682;50.874;3.656;2022-11-14T02:05:08;34.30;;;18.97;;
21046;SDS011;10682;50.874;3.656;2022-11-14T02:07:39;27.70;;;16.57;;
21046;SDS011;10682;50.874;3.656;2022-11-14T02:10:08;35.83;;;18.30;;
21046;SDS011;10682;50.874;3.656;2022-11-14T02:12:42;30.50;;;16.57;;
21046;SDS011;10682;50.874;3.656;2022-11-14T02:15:10;30.63;;;17.10;;
21046;SDS011;10682;50.874;3.656;2022-11-14T02:17:39;31.33;;;17.73;;
21046;SDS011;10682;50.874;3.656;2022-11-14T02:22:38;28.43;;;16.70;;
21046;SDS011;10682;50.874;3.656;2022-11-14T02:25:07;27.73;;;15.73;;
21046;SDS011;10682;50.874;3.656;2022-11-14T02:27:36;29.70;;;16.57;;
21046;SDS011;10682;50.874;3.656;2022-11-14T02:30:08;31.30;;;17.13;;
21046;SDS011;10682;50.874;3.656;2022-11-14T02:32:42;32.13;;;17.90;;
21046;SDS011;10682;50.874;3.656;2022-11-14T02:35:29;32.13;;;16.90;;
21046;SDS011;10682;50.874;3.656;2022-11-14T02:37:56;30.27;;;17.00;;
21046;SDS011;10682;50.874;3.656;2022-11-14T02:40:23;34.77;;;19.57;;
21046;SDS011;10682;50.874;3.656;2022-11-14T02:42:50;33.53;;;18.00;;
21046;SDS011;10682;50.874;3.656;2022-11-14T02:45:17;30.63;;;17.47;;
21046;SDS011;10682;50.874;3.656;2022-11-14T02:47:46;32.07;;;18.13;;
21046;SDS011;10682;50.874;3.656;2022-11-14T02:50:13;30.60;;;17.70;;
21046;SDS011;10682;50.874;3.656;2022-11-14T02:52:40;35.77;;;16.83;;
21046;SDS011;10682;50.874;3.656;2022-11-14T02:55:07;31.77;;;16.83;;
21046;SDS011;10682;50.874;3.656;2022-11-14T02:57:35;41.17;;;18.13;;
21046;SDS011;10682;50.874;3.656;2022-11-14T03:00:02;44.00;;;17.43;;
21046;SDS011;10682;50.874;3.656;2022-11-14T03:02:38;33.10;;;17.37;;
21046;SDS011;10682;50.874;3.656;2022-11-14T03:05:05;55.97;;;19.17;;
21046;SDS011;10682;50.874;3.656;2022-11-14T03:07:33;35.10;;;17.73;;
21046;SDS011;10682;50.874;3.656;2022-11-14T03:10:00;59.73;;;18.47;;
21046;SDS011;10682;50.874;3.656;2022-11-14T03:12:27;69.07;;;19.07;;
21046;SDS011;10682;50.874;3.656;2022-11-14T03:14:54;54.70;;;18.33;;
21046;SDS011;10682;50.874;3.656;2022-11-14T03:17:21;78.70;;;18.63;;
21046;SDS011;10682;50.874;3.656;2022-11-14T03:19:49;34.43;;;18.00;;
21046;SDS011;10682;50.874;3.656;2022-11-14T03:22:16;53.13;;;18.40;;
21046;SDS011;10682;50.874;3.656;2022-11-14T03:24:43;49.97;;;18.50;;
21046;SDS011;10682;50.874;3.656;2022-11-14T03:27:10;54.40;;;19.30;;
21046;SDS011;10682;50.874;3.656;2022-11-14T03:29:37;34.60;;;18.57;;
21046;SDS011;10682;50.874;3.656;2022-11-14T03:32:04;81.53;;;20.17;;
21046;SDS011;10682;50.874;3.656;2022-11-14T03:34:31;57.40;;;20.27;;
21046;SDS011;10682;50.874;3.656;2022-11-14T03:36:58;89.70;;;20.97;;
21046;SDS011;10682;50.874;3.656;2022-11-14T03:39:26;108.33;;;21.53;;
21046;SDS011;10682;50.874;3.656;2022-11-14T03:41:53;111.80;;;21.93;;
21046;SDS011;10682;50.874;3.656;2022-11-14T03:44:20;110.40;;;22.17;;
21046;SDS011;10682;50.874;3.656;2022-11-14T03:46:47;65.77;;;20.23;;
21046;SDS011;10682;50.874;3.656;2022-11-14T03:49:14;55.50;;;19.60;;
21046;SDS011;10682;50.874;3.656;2022-11-14T03:51:41;179.60;;;25.10;;
21046;SDS011;10682;50.874;3.656;2022-11-14T03:54:08;44.00;;;19.53;;
21046;SDS011;10682;50.874;3.656;2022-11-14T03:56:35;34.20;;;18.63;;
21046;SDS011;10682;50.874;3.656;2022-11-14T03:59:02;50.70;;;19.03;;
21046;SDS011;10682;50.874;3.656;2022-11-14T04:01:29;47.67;;;18.23;;
21046;SDS011;10682;50.874;3.656;2022-11-14T04:03:56;40.03;;;17.53;;
21046;SDS011;10682;50.874;3.656;2022-11-14T04:06:23;29.40;;;16.13;;
21046;SDS011;10682;50.874;3.656;2022-11-14T04:08:49;86.67;;;19.07;;
21046;SDS011;10682;50.874;3.656;2022-11-14T04:11:21;32.33;;;16.23;;
21046;SDS011;10682;50.874;3.656;2022-11-14T04:13:48;31.10;;;15.43;;
21046;SDS011;10682;50.874;3.656;2022-11-14T04:16:15;37.10;;;17.03;;
21046;SDS011;10682;50.874;3.656;2022-11-14T04:18:42;31.17;;;15.87;;
21046;SDS011;10682;50.874;3.656;2022-11-14T04:21:09;33.00;;;17.17;;
21046;SDS011;10682;50.874;3.656;2022-11-14T04:23:36;28.37;;;16.43;;
21046;SDS011;10682;50.874;3.656;2022-11-14T04:26:03;29.93;;;16.77;;
21046;SDS011;10682;50.874;3.656;2022-11-14T04:28:30;31.03;;;16.27;;
21046;SDS011;10682;50.874;3.656;2022-11-14T04:30:57;32.83;;;16.40;;
21046;SDS011;10682;50.874;3.656;2022-11-14T04:33:25;30.27;;;15.80;;
21046;SDS011;10682;50.874;3.656;2022-11-14T04:35:52;37.90;;;17.27;;
21046;SDS011;10682;50.874;3.656;2022-11-14T04:38:19;30.43;;;17.17;;
21046;SDS011;10682;50.874;3.656;2022-11-14T04:40:52;24.57;;;15.70;;
21046;SDS011;10682;50.874;3.656;2022-11-14T04:43:19;25.73;;;15.20;;
21046;SDS011;10682;50.874;3.656;2022-11-14T04:45:46;35.20;;;16.23;;
21046;SDS011;10682;50.874;3.656;2022-11-14T04:48:13;31.50;;;16.97;;
21046;SDS011;10682;50.874;3.656;2022-11-14T04:50:40;42.53;;;17.67;;
21046;SDS011;10682;50.874;3.656;2022-11-14T04:53:07;42.60;;;18.13;;
21046;SDS011;10682;50.874;3.656;2022-11-14T04:55:34;29.73;;;16.90;;
21046;SDS011;10682;50.874;3.656;2022-11-14T04:58:01;45.80;;;18.60;;
21046;SDS011;10682;50.874;3.656;2022-11-14T05:00:28;31.33;;;16.57;;
21046;SDS011;10682;50.874;3.656;2022-11-14T05:02:57;28.03;;;16.87;;
21046;SDS011;10682;50.874;3.656;2022-11-14T05:05:25;41.17;;;17.63;;
21046;SDS011;10682;50.874;3.656;2022-11-14T05:07:53;46.20;;;19.40;;
21046;SDS011;10682;50.874;3.656;2022-11-14T05:10:20;36.87;;;17.23;;
21046;SDS011;10682;50.874;3.656;2022-11-14T05:12:47;30.47;;;16.70;;
21046;SDS011;10682;50.874;3.656;2022-11-14T05:15:14;72.23;;;19.03;;
21046;SDS011;10682;50.874;3.656;2022-11-14T05:17:41;33.20;;;16.70;;
21046;SDS011;10682;50.874;3.656;2022-11-14T05:20:08;36.63;;;17.00;;
21046;SDS011;10682;50.874;3.656;2022-11-14T05:22:36;32.97;;;16.83;;
21046;SDS011;10682;50.874;3.656;2022-11-14T05:25:03;34.23;;;16.43;;
21046;SDS011;10682;50.874;3.656;2022-11-14T05:27:31;29.70;;;16.53;;
21046;SDS011;10682;50.874;3.656;2022-11-14T05:29:58;34.60;;;16.57;;
21046;SDS011;10682;50.874;3.656;2022-11-14T05:32:25;31.87;;;15.90;;
21046;SDS011;10682;50.874;3.656;2022-11-14T05:34:52;29.20;;;16.07;;
21046;SDS011;10682;50.874;3.656;2022-11-14T05:37:19;29.13;;;17.03;;
21046;SDS011;10682;50.874;3.656;2022-11-14T05:39:46;28.43;;;16.97;;
21046;SDS011;10682;50.874;3.656;2022-11-14T05:42:13;29.23;;;17.23;;
21046;SDS011;10682;50.874;3.656;2022-11-14T05:44:40;33.20;;;17.67;;
21046;SDS011;10682;50.874;3.656;2022-11-14T05:47:07;27.23;;;16.47;;
21046;SDS011;10682;50.874;3.656;2022-11-14T05:49:34;28.13;;;17.20;;
21046;SDS011;10682;50.874;3.656;2022-11-14T05:52:00;27.73;;;16.30;;
21046;SDS011;10682;50.874;3.656;2022-11-14T05:54:27;26.70;;;16.57;;
21046;SDS011;10682;50.874;3.656;2022-11-14T05:56:54;28.00;;;17.07;;
21046;SDS011;10682;50.874;3.656;2022-11-14T05:59:21;27.40;;;16.40;;
21046;SDS011;10682;50.874;3.656;2022-11-14T06:01:48;26.73;;;15.47;;
21046;SDS011;10682;50.874;3.656;2022-11-14T06:04:15;25.00;;;14.43;;
21046;SDS011;10682;50.874;3.656;2022-11-14T06:06:42;25.77;;;14.77;;
21046;SDS011;10682;50.874;3.656;2022-11-14T06:09:09;26.33;;;16.53;;
21046;SDS011;10682;50.874;3.656;2022-11-14T06:11:36;30.03;;;16.57;;
21046;SDS011;10682;50.874;3.656;2022-11-14T06:14:03;29.20;;;16.47;;
21046;SDS011;10682;50.874;3.656;2022-11-14T06:16:36;27.43;;;17.03;;
21046;SDS011;10682;50.874;3.656;2022-11-14T06:19:03;25.87;;;15.53;;
21046;SDS011;10682;50.874;3.656;2022-11-14T06:21:30;24.80;;;14.40;;
21046;SDS011;10682;50.874;3.656;2022-11-14T06:23:57;24.80;;;14.87;;
21046;SDS011;10682;50.874;3.656;2022-11-14T06:26:25;25.03;;;14.50;;
21046;SDS011;10682;50.874;3.656;2022-11-14T06:28:55;22.97;;;14.67;;
21046;SDS011;10682;50.874;3.656;2022-11-14T06:31:24;24.23;;;14.30;;
21046;SDS011;10682;50.874;3.656;2022-11-14T06:33:51;24.03;;;15.13;;
21046;SDS011;10682;50.874;3.656;2022-11-14T06:36:18;23.10;;;14.80;;
21046;SDS011;10682;50.874;3.656;2022-11-14T06:38:46;24.70;;;15.67;;
21046;SDS011;10682;50.874;3.656;2022-11-14T06:41:13;28.57;;;17.37;;
21046;SDS011;10682;50.874;3.656;2022-11-14T06:43:47;25.63;;;15.50;;
21046;SDS011;10682;50.874;3.656;2022-11-14T06:46:17;24.87;;;14.80;;
21046;SDS011;10682;50.874;3.656;2022-11-14T06:48:46;27.33;;;15.40;;
21046;SDS011;10682;50.874;3.656;2022-11-14T06:51:15;27.40;;;16.20;;
21046;SDS011;10682;50.874;3.656;2022-11-14T06:53:43;30.37;;;16.77;;
21046;SDS011;10682;50.874;3.656;2022-11-14T06:56:12;33.33;;;18.40;;
21046;SDS011;10682;50.874;3.656;2022-11-14T06:58:42;28.80;;;17.53;;
21046;SDS011;10682;50.874;3.656;2022-11-14T07:01:14;35.33;;;19.07;;
21046;SDS011;10682;50.874;3.656;2022-11-14T07:03:47;38.77;;;20.60;;
21046;SDS011;10682;50.874;3.656;2022-11-14T07:06:16;40.40;;;20.37;;
21046;SDS011;10682;50.874;3.656;2022-11-14T07:08:46;28.13;;;17.00;;
21046;SDS011;10682;50.874;3.656;2022-11-14T07:11:17;25.07;;;15.80;;
21046;SDS011;10682;50.874;3.656;2022-11-14T07:13:52;23.37;;;15.03;;
21046;SDS011;10682;50.874;3.656;2022-11-14T07:16:30;26.23;;;15.17;;
21046;SDS011;10682;50.874;3.656;2022-11-14T07:19:03;25.57;;;15.13;;
21046;SDS011;10682;50.874;3.656;2022-11-14T07:21:34;29.03;;;17.67;;
21046;SDS011;10682;50.874;3.656;2022-11-14T07:24:01;27.33;;;16.10;;
21046;SDS011;10682;50.874;3.656;2022-11-14T07:26:29;32.57;;;18.40;;
21046;SDS011;10682;50.874;3.656;2022-11-14T07:28:56;30.37;;;17.27;;
21046;SDS011;10682;50.874;3.656;2022-11-14T07:31:28;30.63;;;18.13;;
21046;SDS011;10682;50.874;3.656;2022-11-14T07:33:54;26.90;;;16.60;;
21046;SDS011;10682;50.874;3.656;2022-11-14T07:36:22;30.53;;;17.60;;
21046;SDS011;10682;50.874;3.656;2022-11-14T07:38:49;33.33;;;19.43;;
21046;SDS011;10682;50.874;3.656;2022-11-14T07:41:16;34.27;;;19.33;;
21046;SDS011;10682;50.874;3.656;2022-11-14T07:43:43;36.77;;;21.00;;
21046;SDS011;10682;50.874;3.656;2022-11-14T07:46:11;35.33;;;21.07;;
21046;SDS011;10682;50.874;3.656;2022-11-14T07:48:41;38.30;;;20.40;;
21046;SDS011;10682;50.874;3.656;2022-11-14T07:51:09;35.13;;;19.23;;
21046;SDS011;10682;50.874;3.656;2022-11-14T07:53:42;31.03;;;19.10;;
21046;SDS011;10682;50.874;3.656;2022-11-14T07:56:09;25.60;;;15.90;;
21046;SDS011;10682;50.874;3.656;2022-11-14T07:58:37;32.00;;;18.30;;
21046;SDS011;10682;50.874;3.656;2022-11-14T08:01:06;27.70;;;16.17;;
21046;SDS011;10682;50.874;3.656;2022-11-14T08:03:35;27.63;;;15.23;;
21046;SDS011;10682;50.874;3.656;2022-11-14T08:06:11;25.53;;;13.40;;
21046;SDS011;10682;50.874;3.656;2022-11-14T08:08:40;24.07;;;13.80;;
21046;SDS011;10682;50.874;3.656;2022-11-14T08:11:07;24.77;;;14.40;;
21046;SDS011;10682;50.874;3.656;2022-11-14T08:13:34;20.90;;;13.43;;
21046;SDS011;10682;50.874;3.656;2022-11-14T08:16:05;23.20;;;12.73;;
21046;SDS011;10682;50.874;3.656;2022-11-14T08:18:38;21.90;;;13.37;;
21046;SDS011;10682;50.874;3.656;2022-11-14T08:21:06;19.10;;;12.63;;
21046;SDS011;10682;50.874;3.656;2022-11-14T08:23:33;18.90;;;11.97;;
21046;SDS011;10682;50.874;3.656;2022-11-14T08:26:00;18.63;;;12.33;;
21046;SDS011;10682;50.874;3.656;2022-11-14T08:28:27;17.27;;;12.30;;
21046;SDS011;10682;50.874;3.656;2022-11-14T08:31:02;21.00;;;12.67;;
21046;SDS011;10682;50.874;3.656;2022-11-14T08:33:29;20.37;;;12.67;;
21046;SDS011;10682;50.874;3.656;2022-11-14T08:36:00;19.67;;;11.97;;
21046;SDS011;10682;50.874;3.656;2022-11-14T08:38:29;20.77;;;12.60;;
21046;SDS011;10682;50.874;3.656;2022-11-14T08:41:01;21.63;;;12.97;;
21046;SDS011;10682;50.874;3.656;2022-11-14T08:43:30;20.10;;;12.23;;
21046;SDS011;10682;50.874;3.656;2022-11-14T08:46:01;18.93;;;12.63;;
21046;SDS011;10682;50.874;3.656;2022-11-14T08:48:30;20.90;;;12.27;;
21046;SDS011;10682;50.874;3.656;2022-11-14T08:51:05;20.57;;;12.33;;
21046;SDS011;10682;50.874;3.656;2022-11-14T08:53:32;20.50;;;12.67;;
21046;SDS011;10682;50.874;3.656;2022-11-14T08:56:00;27.30;;;14.83;;
21046;SDS011;10682;50.874;3.656;2022-11-14T08:58:28;27.27;;;15.00;;
21046;SDS011;10682;50.874;3.656;2022-11-14T09:00:58;26.43;;;14.67;;
21046;SDS011;10682;50.874;3.656;2022-11-14T09:03:30;28.67;;;15.47;;
21046;SDS011;10682;50.874;3.656;2022-11-14T09:05:58;26.83;;;15.27;;
21046;SDS011;10682;50.874;3.656;2022-11-14T09:08:26;26.37;;;15.13;;
21046;SDS011;10682;50.874;3.656;2022-11-14T09:10:58;30.03;;;15.23;;
21046;SDS011;10682;50.874;3.656;2022-11-14T09:13:32;25.70;;;15.10;;
21046;SDS011;10682;50.874;3.656;2022-11-14T09:16:00;28.10;;;16.13;;
21046;SDS011;10682;50.874;3.656;2022-11-14T09:18:28;27.03;;;16.03;;
21046;SDS011;10682;50.874;3.656;2022-11-14T09:21:03;26.97;;;15.93;;
21046;SDS011;10682;50.874;3.656;2022-11-14T09:23:33;25.77;;;16.17;;
21046;SDS011;10682;50.874;3.656;2022-11-14T09:26:04;28.63;;;16.30;;
21046;SDS011;10682;50.874;3.656;2022-11-14T09:28:33;31.03;;;16.60;;
21046;SDS011;10682;50.874;3.656;2022-11-14T09:31:04;31.37;;;18.33;;
21046;SDS011;10682;50.874;3.656;2022-11-14T09:33:37;34.27;;;18.60;;
21046;SDS011;10682;50.874;3.656;2022-11-14T09:36:05;34.87;;;19.30;;
21046;SDS011;10682;50.874;3.656;2022-11-14T09:38:36;35.37;;;18.87;;
21046;SDS011;10682;50.874;3.656;2022-11-14T09:44:05;35.97;;;19.40;;
21046;SDS011;10682;50.874;3.656;2022-11-14T09:47:49;37.13;;;19.37;;
21046;SDS011;10682;50.874;3.656;2022-11-14T09:50:06;36.60;;;19.37;;
21046;SDS011;10682;50.874;3.656;2022-11-14T09:52:46;34.33;;;19.43;;
21046;SDS011;10682;50.874;3.656;2022-11-14T09:55:20;36.60;;;20.17;;
21046;SDS011;10682;50.874;3.656;2022-11-14T09:58:00;37.33;;;20.17;;
21046;SDS011;10682;50.874;3.656;2022-11-14T10:00:36;36.47;;;19.90;;
21046;SDS011;10682;50.874;3.656;2022-11-14T10:06:19;43.17;;;21.77;;
21046;SDS011;10682;50.874;3.656;2022-11-14T10:12:34;41.50;;;21.93;;
21046;SDS011;10682;50.874;3.656;2022-11-14T10:15:25;41.50;;;21.17;;
21046;SDS011;10682;50.874;3.656;2022-11-14T10:23:42;36.97;;;20.23;;
21046;SDS011;10682;50.874;3.656;2022-11-14T10:26:56;37.07;;;19.10;;
21046;SDS011;10682;50.874;3.656;2022-11-14T10:32:15;36.47;;;18.73;;
21046;SDS011;10682;50.874;3.656;2022-11-14T10:35:17;31.37;;;18.23;;
21046;SDS011;10682;50.874;3.656;2022-11-14T10:43:23;34.07;;;20.00;;
21046;SDS011;10682;50.874;3.656;2022-11-14T10:48:56;32.90;;;17.77;;
21046;SDS011;10682;50.874;3.656;2022-11-14T10:56:56;30.90;;;17.83;;
21046;SDS011;10682;50.874;3.656;2022-11-14T10:59:24;32.53;;;17.73;;
21046;SDS011;10682;50.874;3.656;2022-11-14T11:01:53;37.97;;;20.97;;
21046;SDS011;10682;50.874;3.656;2022-11-14T11:06:53;33.80;;;18.90;;
21046;SDS011;10682;50.874;3.656;2022-11-14T11:10:04;31.27;;;18.57;;
21046;SDS011;10682;50.874;3.656;2022-11-14T11:12:51;32.53;;;17.97;;
21046;SDS011;10682;50.874;3.656;2022-11-14T11:15:23;34.07;;;18.70;;
21046;SDS011;10682;50.874;3.656;2022-11-14T11:18:42;33.17;;;18.93;;
21046;SDS011;10682;50.874;3.656;2022-11-14T11:21:06;34.10;;;18.90;;
21046;SDS011;10682;50.874;3.656;2022-11-14T11:23:36;32.90;;;18.40;;
21046;SDS011;10682;50.874;3.656;2022-11-14T11:29:06;33.00;;;18.20;;
21046;SDS011;10682;50.874;3.656;2022-11-14T11:31:52;34.27;;;18.97;;
21046;SDS011;10682;50.874;3.656;2022-11-14T11:34:25;34.37;;;18.70;;
21046;SDS011;10682;50.874;3.656;2022-11-14T11:37:04;37.00;;;19.43;;
21046;SDS011;10682;50.874;3.656;2022-11-14T11:39:48;37.23;;;19.87;;
21046;SDS011;10682;50.874;3.656;2022-11-14T11:42:21;35.60;;;19.10;;
21046;SDS011;10682;50.874;3.656;2022-11-14T11:45:23;31.93;;;18.33;;
21046;SDS011;10682;50.874;3.656;2022-11-14T11:50:35;40.83;;;21.47;;
21046;SDS011;10682;50.874;3.656;2022-11-14T11:53:14;38.87;;;21.10;;
21046;SDS011;10682;50.874;3.656;2022-11-14T11:55:58;37.37;;;21.27;;
21046;SDS011;10682;50.874;3.656;2022-11-14T11:58:43;40.87;;;21.47;;
21046;SDS011;10682;50.874;3.656;2022-11-14T12:01:15;39.60;;;20.27;;
21046;SDS011;10682;50.874;3.656;2022-11-14T12:03:45;38.80;;;20.63;;
21046;SDS011;10682;50.874;3.656;2022-11-14T12:06:19;39.37;;;20.73;;
21046;SDS011;10682;50.874;3.656;2022-11-14T12:15:21;40.07;;;21.77;;
21046;SDS011;10682;50.874;3.656;2022-11-14T12:27:44;40.20;;;20.83;;
21046;SDS011;10682;50.874;3.656;2022-11-14T12:30:44;37.93;;;19.93;;
21046;SDS011;10682;50.874;3.656;2022-11-14T12:36:03;42.17;;;20.83;;
21046;SDS011;10682;50.874;3.656;2022-11-14T12:38:45;39.47;;;19.73;;
21046;SDS011;10682;50.874;3.656;2022-11-14T12:41:20;42.57;;;20.90;;
21046;SDS011;10682;50.874;3.656;2022-11-14T13:06:21;48.67;;;24.03;;
21046;SDS011;10682;50.874;3.656;2022-11-14T13:09:09;52.07;;;24.50;;
21046;SDS011;10682;50.874;3.656;2022-11-14T13:12:17;50.03;;;24.40;;
21046;SDS011;10682;50.874;3.656;2022-11-14T13:18:20;49.83;;;24.37;;
21046;SDS011;10682;50.874;3.656;2022-11-14T13:21:21;45.50;;;21.70;;
21046;SDS011;10682;50.874;3.656;2022-11-14T13:24:14;44.03;;;23.13;;
21046;SDS011;10682;50.874;3.656;2022-11-14T13:26:47;47.30;;;23.37;;
21046;SDS011;10682;50.874;3.656;2022-11-14T13:32:09;51.37;;;23.70;;
21046;SDS011;10682;50.874;3.656;2022-11-14T13:34:48;79.83;;;36.37;;
21046;SDS011;10682;50.874;3.656;2022-11-14T13:43:58;45.03;;;23.40;;
21046;SDS011;10682;50.874;3.656;2022-11-14T13:52:34;39.53;;;21.30;;
21046;SDS011;10682;50.874;3.656;2022-11-14T13:55:31;38.67;;;21.30;;
21046;SDS011;10682;50.874;3.656;2022-11-14T13:58:22;34.37;;;19.93;;
21046;SDS011;10682;50.874;3.656;2022-11-14T14:01:07;37.93;;;19.57;;
21046;SDS011;10682;50.874;3.656;2022-11-14T14:10:20;39.77;;;21.10;;
21046;SDS011;10682;50.874;3.656;2022-11-14T14:19:16;39.23;;;19.67;;
21046;SDS011;10682;50.874;3.656;2022-11-14T14:22:12;34.83;;;19.07;;
21046;SDS011;10682;50.874;3.656;2022-11-14T14:24:59;36.27;;;19.03;;
21046;SDS011;10682;50.874;3.656;2022-11-14T14:27:58;38.30;;;19.33;;
21046;SDS011;10682;50.874;3.656;2022-11-14T14:33:42;34.33;;;18.57;;
21046;SDS011;10682;50.874;3.656;2022-11-14T14:36:19;36.00;;;18.10;;
21046;SDS011;10682;50.874;3.656;2022-11-14T14:39:36;34.40;;;18.63;;
21046;SDS011;10682;50.874;3.656;2022-11-14T14:41:43;34.43;;;18.43;;
21046;SDS011;10682;50.874;3.656;2022-11-14T14:44:30;35.33;;;19.00;;
21046;SDS011;10682;50.874;3.656;2022-11-14T14:47:16;37.57;;;19.20;;
21046;SDS011;10682;50.874;3.656;2022-11-14T14:50:02;36.37;;;18.50;;
21046;SDS011;10682;50.874;3.656;2022-11-14T14:52:38;37.83;;;19.93;;
21046;SDS011;10682;50.874;3.656;2022-11-14T14:55:07;39.77;;;19.30;;
21046;SDS011;10682;50.874;3.656;2022-11-14T14:57:53;38.47;;;20.33;;
21046;SDS011;10682;50.874;3.656;2022-11-14T15:00:23;37.83;;;19.10;;
21046;SDS011;10682;50.874;3.656;2022-11-14T15:02:55;37.47;;;19.73;;
21046;SDS011;10682;50.874;3.656;2022-11-14T15:05:26;37.60;;;19.07;;
21046;SDS011;10682;50.874;3.656;2022-11-14T15:07:55;35.63;;;18.90;;
21046;SDS011;10682;50.874;3.656;2022-11-14T15:10:26;41.93;;;20.03;;
21046;SDS011;10682;50.874;3.656;2022-11-14T15:12:55;39.17;;;19.23;;
21046;SDS011;10682;50.874;3.656;2022-11-14T15:15:23;39.23;;;19.97;;
21046;SDS011;10682;50.874;3.656;2022-11-14T15:17:53;38.83;;;19.13;;
21046;SDS011;10682;50.874;3.656;2022-11-14T15:20:25;39.80;;;19.60;;
21046;SDS011;10682;50.874;3.656;2022-11-14T15:25:39;35.23;;;18.70;;
21046;SDS011;10682;50.874;3.656;2022-11-14T15:28:12;36.57;;;19.13;;
21046;SDS011;10682;50.874;3.656;2022-11-14T15:30:53;40.87;;;20.77;;
21046;SDS011;10682;50.874;3.656;2022-11-14T15:33:28;43.37;;;20.83;;
21046;SDS011;10682;50.874;3.656;2022-11-14T15:36:04;45.00;;;21.73;;
21046;SDS011;10682;50.874;3.656;2022-11-14T15:38:37;51.27;;;22.97;;
21046;SDS011;10682;50.874;3.656;2022-11-14T15:41:21;45.27;;;21.73;;
21046;SDS011;10682;50.874;3.656;2022-11-14T15:43:53;49.00;;;21.30;;
21046;SDS011;10682;50.874;3.656;2022-11-14T15:51:43;45.40;;;20.17;;
21046;SDS011;10682;50.874;3.656;2022-11-14T15:54:29;40.63;;;19.83;;
21046;SDS011;10682;50.874;3.656;2022-11-14T15:57:11;40.50;;;19.87;;
21046;SDS011;10682;50.874;3.656;2022-11-14T15:59:39;38.33;;;17.70;;
21046;SDS011;10682;50.874;3.656;2022-11-14T16:02:14;41.07;;;18.60;;
21046;SDS011;10682;50.874;3.656;2022-11-14T16:04:55;40.37;;;18.77;;
21046;SDS011;10682;50.874;3.656;2022-11-14T16:07:24;37.90;;;18.20;;
21046;SDS011;10682;50.874;3.656;2022-11-14T16:09:51;42.23;;;19.83;;
21046;SDS011;10682;50.874;3.656;2022-11-14T16:12:18;39.20;;;18.87;;
21046;SDS011;10682;50.874;3.656;2022-11-14T16:14:45;37.93;;;18.73;;
21046;SDS011;10682;50.874;3.656;2022-11-14T16:17:14;44.57;;;20.37;;
21046;SDS011;10682;50.874;3.656;2022-11-14T16:19:43;40.13;;;19.27;;
21046;SDS011;10682;50.874;3.656;2022-11-14T16:22:14;42.30;;;18.97;;
21046;SDS011;10682;50.874;3.656;2022-11-14T16:24:43;45.17;;;19.53;;
21046;SDS011;10682;50.874;3.656;2022-11-14T16:27:10;45.07;;;19.97;;
21046;SDS011;10682;50.874;3.656;2022-11-14T16:29:37;42.83;;;19.97;;
21046;SDS011;10682;50.874;3.656;2022-11-14T16:32:04;41.77;;;19.90;;
21046;SDS011;10682;50.874;3.656;2022-11-14T16:34:31;48.77;;;20.73;;
21046;SDS011;10682;50.874;3.656;2022-11-14T16:37:01;47.73;;;20.63;;
21046;SDS011;10682;50.874;3.656;2022-11-14T16:39:28;48.30;;;21.07;;
21046;SDS011;10682;50.874;3.656;2022-11-14T16:41:59;49.93;;;20.40;;
21046;SDS011;10682;50.874;3.656;2022-11-14T16:44:29;41.03;;;19.07;;
21046;SDS011;10682;50.874;3.656;2022-11-14T16:47:05;48.27;;;20.50;;
21046;SDS011;10682;50.874;3.656;2022-11-14T16:49:32;46.23;;;21.60;;
21046;SDS011;10682;50.874;3.656;2022-11-14T16:51:59;50.37;;;20.90;;
21046;SDS011;10682;50.874;3.656;2022-11-14T16:54:30;48.07;;;20.97;;